sensor_id;sensor_type;location;lat;lon;timestamp;P1;durP1;ratioP1;P2;durP2;ratioP2
23388;SDS011;11867;51.198;11.966;2023-02-13T00:00:45;17.60;;;11.93;;
23388;SDS011;11867;51.198;11.966;2023-02-13T00:01:48;18.23;;;11.98;;
23388;SDS011;11867;51.198;11.966;2023-02-13T00:02:50;16.70;;;11.75;;
23388;SDS011;11867;51.198;11.966;2023-02-13T00:03:54;18.63;;;12.88;;
23388;SDS011;11867;51.198;11.966;2023-02-13T00:04:56;16.30;;;11.50;;
23388;SDS011;11867;51.198;11.966;2023-02-13T00:05:59;16.65;;;11.60;;
23388;SDS011;11867;51.198;11.966;2023-02-13T00:07:00;17.08;;;11.50;;
23388;SDS011;11867;51.198;11.966;2023-02-13T00:08:04;19.88;;;12.52;;
23388;SDS011;11867;51.198;11.966;2023-02-13T00:09:05;21.77;;;13.13;;
23388;SDS011;11867;51.198;11.966;2023-02-13T00:10:11;18.17;;;12.80;;
23388;SDS011;11867;51.198;11.966;2023-02-13T00:11:13;17.73;;;12.90;;
23388;SDS011;11867;51.198;11.966;2023-02-13T00:12:16;20.15;;;13.63;;
23388;SDS011;11867;51.198;11.966;2023-02-13T00:13:17;18.45;;;12.27;;
23388;SDS011;11867;51.198;11.966;2023-02-13T00:14:20;18.15;;;12.48;;
23388;SDS011;11867;51.198;11.966;2023-02-13T00:15:21;18.02;;;12.65;;
23388;SDS011;11867;51.198;11.966;2023-02-13T00:16:24;22.30;;;12.85;;
23388;SDS011;11867;51.198;11.966;2023-02-13T00:17:27;19.83;;;13.30;;
23388;SDS011;11867;51.198;11.966;2023-02-13T00:18:29;17.27;;;12.48;;
23388;SDS011;11867;51.198;11.966;2023-02-13T00:19:36;18.58;;;12.90;;
23388;SDS011;11867;51.198;11.966;2023-02-13T00:20:38;18.60;;;12.98;;
23388;SDS011;11867;51.198;11.966;2023-02-13T00:21:40;20.50;;;12.90;;
23388;SDS011;11867;51.198;11.966;2023-02-13T00:22:42;19.50;;;12.52;;
23388;SDS011;11867;51.198;11.966;2023-02-13T00:23:45;20.58;;;13.40;;
23388;SDS011;11867;51.198;11.966;2023-02-13T00:24:46;20.45;;;12.45;;
23388;SDS011;11867;51.198;11.966;2023-02-13T00:25:49;20.92;;;12.77;;
23388;SDS011;11867;51.198;11.966;2023-02-13T00:26:51;18.50;;;12.98;;
23388;SDS011;11867;51.198;11.966;2023-02-13T00:27:53;20.95;;;12.70;;
23388;SDS011;11867;51.198;11.966;2023-02-13T00:28:55;19.17;;;13.35;;
23388;SDS011;11867;51.198;11.966;2023-02-13T00:29:58;19.23;;;12.68;;
23388;SDS011;11867;51.198;11.966;2023-02-13T00:31:03;18.27;;;12.25;;
23388;SDS011;11867;51.198;11.966;2023-02-13T00:32:07;18.27;;;12.38;;
23388;SDS011;11867;51.198;11.966;2023-02-13T00:33:09;17.90;;;12.80;;
23388;SDS011;11867;51.198;11.966;2023-02-13T00:34:12;16.10;;;11.93;;
23388;SDS011;11867;51.198;11.966;2023-02-13T00:35:15;17.27;;;12.43;;
23388;SDS011;11867;51.198;11.966;2023-02-13T00:36:19;18.75;;;13.23;;
23388;SDS011;11867;51.198;11.966;2023-02-13T00:37:21;19.73;;;13.02;;
23388;SDS011;11867;51.198;11.966;2023-02-13T00:38:24;20.42;;;12.70;;
23388;SDS011;11867;51.198;11.966;2023-02-13T00:39:25;18.25;;;12.02;;
23388;SDS011;11867;51.198;11.966;2023-02-13T00:40:28;19.85;;;13.23;;
23388;SDS011;11867;51.198;11.966;2023-02-13T00:41:29;19.83;;;12.82;;
23388;SDS011;11867;51.198;11.966;2023-02-13T00:42:32;20.85;;;12.77;;
23388;SDS011;11867;51.198;11.966;2023-02-13T00:43:34;20.00;;;13.27;;
23388;SDS011;11867;51.198;11.966;2023-02-13T00:44:37;18.83;;;12.65;;
23388;SDS011;11867;51.198;11.966;2023-02-13T00:45:38;19.63;;;12.95;;
23388;SDS011;11867;51.198;11.966;2023-02-13T00:46:41;21.00;;;13.98;;
23388;SDS011;11867;51.198;11.966;2023-02-13T00:47:42;18.77;;;12.32;;
23388;SDS011;11867;51.198;11.966;2023-02-13T00:48:45;18.77;;;13.52;;
23388;SDS011;11867;51.198;11.966;2023-02-13T00:49:47;19.95;;;12.38;;
23388;SDS011;11867;51.198;11.966;2023-02-13T00:50:51;18.83;;;12.35;;
23388;SDS011;11867;51.198;11.966;2023-02-13T00:51:52;18.98;;;12.65;;
23388;SDS011;11867;51.198;11.966;2023-02-13T00:52:55;19.67;;;13.05;;
23388;SDS011;11867;51.198;11.966;2023-02-13T00:53:56;18.80;;;12.27;;
23388;SDS011;11867;51.198;11.966;2023-02-13T00:54:59;18.77;;;12.75;;
23388;SDS011;11867;51.198;11.966;2023-02-13T00:56:01;22.13;;;12.93;;
23388;SDS011;11867;51.198;11.966;2023-02-13T00:57:04;21.08;;;13.05;;
23388;SDS011;11867;51.198;11.966;2023-02-13T00:58:08;19.90;;;12.25;;
23388;SDS011;11867;51.198;11.966;2023-02-13T00:59:10;19.23;;;12.45;;
23388;SDS011;11867;51.198;11.966;2023-02-13T01:00:12;19.58;;;11.88;;
23388;SDS011;11867;51.198;11.966;2023-02-13T01:01:18;17.55;;;12.27;;
23388;SDS011;11867;51.198;11.966;2023-02-13T01:02:20;20.48;;;12.77;;
23388;SDS011;11867;51.198;11.966;2023-02-13T01:03:23;18.23;;;12.20;;
23388;SDS011;11867;51.198;11.966;2023-02-13T01:04:25;18.60;;;12.55;;
23388;SDS011;11867;51.198;11.966;2023-02-13T01:05:27;16.90;;;12.00;;
23388;SDS011;11867;51.198;11.966;2023-02-13T01:06:30;18.98;;;11.88;;
23388;SDS011;11867;51.198;11.966;2023-02-13T01:07:33;19.40;;;11.80;;
23388;SDS011;11867;51.198;11.966;2023-02-13T01:08:37;17.67;;;11.93;;
23388;SDS011;11867;51.198;11.966;2023-02-13T01:09:40;15.95;;;11.80;;
23388;SDS011;11867;51.198;11.966;2023-02-13T01:10:42;18.75;;;12.10;;
23388;SDS011;11867;51.198;11.966;2023-02-13T01:11:46;19.90;;;12.18;;
23388;SDS011;11867;51.198;11.966;2023-02-13T01:12:48;17.80;;;11.75;;
23388;SDS011;11867;51.198;11.966;2023-02-13T01:13:50;19.27;;;12.60;;
23388;SDS011;11867;51.198;11.966;2023-02-13T01:14:52;18.20;;;11.98;;
23388;SDS011;11867;51.198;11.966;2023-02-13T01:15:55;17.00;;;11.98;;
23388;SDS011;11867;51.198;11.966;2023-02-13T01:16:56;17.83;;;11.27;;
23388;SDS011;11867;51.198;11.966;2023-02-13T01:17:59;17.60;;;11.70;;
23388;SDS011;11867;51.198;11.966;2023-02-13T01:19:01;18.63;;;11.35;;
23388;SDS011;11867;51.198;11.966;2023-02-13T01:20:04;16.67;;;11.60;;
23388;SDS011;11867;51.198;11.966;2023-02-13T01:21:06;14.75;;;11.05;;
23388;SDS011;11867;51.198;11.966;2023-02-13T01:22:11;18.80;;;12.63;;
23388;SDS011;11867;51.198;11.966;2023-02-13T01:23:13;16.75;;;10.20;;
23388;SDS011;11867;51.198;11.966;2023-02-13T01:24:15;17.35;;;11.45;;
23388;SDS011;11867;51.198;11.966;2023-02-13T01:25:17;18.55;;;11.95;;
23388;SDS011;11867;51.198;11.966;2023-02-13T01:26:20;15.90;;;10.93;;
23388;SDS011;11867;51.198;11.966;2023-02-13T01:27:23;16.17;;;11.32;;
23388;SDS011;11867;51.198;11.966;2023-02-13T01:28:25;16.65;;;11.73;;
23388;SDS011;11867;51.198;11.966;2023-02-13T01:29:27;16.05;;;11.30;;
23388;SDS011;11867;51.198;11.966;2023-02-13T01:30:30;15.60;;;11.65;;
23388;SDS011;11867;51.198;11.966;2023-02-13T01:31:32;15.20;;;10.75;;
23388;SDS011;11867;51.198;11.966;2023-02-13T01:32:35;13.75;;;9.70;;
23388;SDS011;11867;51.198;11.966;2023-02-13T01:33:36;15.27;;;11.02;;
23388;SDS011;11867;51.198;11.966;2023-02-13T01:34:39;15.15;;;11.07;;
23388;SDS011;11867;51.198;11.966;2023-02-13T01:35:41;12.75;;;9.82;;
23388;SDS011;11867;51.198;11.966;2023-02-13T01:36:44;18.20;;;11.30;;
23388;SDS011;11867;51.198;11.966;2023-02-13T01:37:47;16.77;;;10.75;;
23388;SDS011;11867;51.198;11.966;2023-02-13T01:38:51;16.73;;;10.20;;
23388;SDS011;11867;51.198;11.966;2023-02-13T01:39:53;15.05;;;10.18;;
23388;SDS011;11867;51.198;11.966;2023-02-13T01:40:56;15.20;;;9.55;;
23388;SDS011;11867;51.198;11.966;2023-02-13T01:41:58;12.20;;;6.95;;
23388;SDS011;11867;51.198;11.966;2023-02-13T01:43:01;11.73;;;7.50;;
23388;SDS011;11867;51.198;11.966;2023-02-13T01:44:43;10.75;;;8.00;;
23388;SDS011;11867;51.198;11.966;2023-02-13T01:45:44;10.02;;;6.82;;
23388;SDS011;11867;51.198;11.966;2023-02-13T01:46:48;11.43;;;7.75;;
23388;SDS011;11867;51.198;11.966;2023-02-13T01:47:52;13.00;;;8.77;;
23388;SDS011;11867;51.198;11.966;2023-02-13T01:48:57;13.90;;;8.80;;
23388;SDS011;11867;51.198;11.966;2023-02-13T01:50:05;12.82;;;8.55;;
23388;SDS011;11867;51.198;11.966;2023-02-13T01:51:11;12.32;;;8.23;;
23388;SDS011;11867;51.198;11.966;2023-02-13T01:52:18;12.52;;;8.45;;
23388;SDS011;11867;51.198;11.966;2023-02-13T01:53:23;12.43;;;8.73;;
23388;SDS011;11867;51.198;11.966;2023-02-13T01:54:29;10.02;;;7.75;;
23388;SDS011;11867;51.198;11.966;2023-02-13T01:55:34;12.93;;;8.77;;
23388;SDS011;11867;51.198;11.966;2023-02-13T01:56:45;12.45;;;7.82;;
23388;SDS011;11867;51.198;11.966;2023-02-13T01:57:50;12.43;;;8.10;;
23388;SDS011;11867;51.198;11.966;2023-02-13T01:58:58;12.85;;;8.02;;
23388;SDS011;11867;51.198;11.966;2023-02-13T02:00:05;12.02;;;8.13;;
23388;SDS011;11867;51.198;11.966;2023-02-13T02:01:09;10.60;;;7.65;;
23388;SDS011;11867;51.198;11.966;2023-02-13T02:02:12;12.32;;;8.15;;
23388;SDS011;11867;51.198;11.966;2023-02-13T02:03:16;10.70;;;7.88;;
23388;SDS011;11867;51.198;11.966;2023-02-13T02:04:21;11.63;;;8.13;;
23388;SDS011;11867;51.198;11.966;2023-02-13T02:05:27;13.25;;;7.95;;
23388;SDS011;11867;51.198;11.966;2023-02-13T02:06:33;11.35;;;8.13;;
23388;SDS011;11867;51.198;11.966;2023-02-13T02:07:40;12.48;;;8.52;;
23388;SDS011;11867;51.198;11.966;2023-02-13T02:08:43;11.63;;;8.25;;
23388;SDS011;11867;51.198;11.966;2023-02-13T02:09:49;10.77;;;7.68;;
23388;SDS011;11867;51.198;11.966;2023-02-13T02:10:54;11.82;;;7.65;;
23388;SDS011;11867;51.198;11.966;2023-02-13T02:12:02;10.15;;;7.60;;
23388;SDS011;11867;51.198;11.966;2023-02-13T02:13:08;10.25;;;6.80;;
23388;SDS011;11867;51.198;11.966;2023-02-13T02:14:13;9.57;;;7.53;;
23388;SDS011;11867;51.198;11.966;2023-02-13T02:15:15;8.35;;;6.07;;
23388;SDS011;11867;51.198;11.966;2023-02-13T02:16:18;8.57;;;6.50;;
23388;SDS011;11867;51.198;11.966;2023-02-13T02:17:20;8.65;;;6.85;;
23388;SDS011;11867;51.198;11.966;2023-02-13T02:18:25;9.52;;;6.80;;
23388;SDS011;11867;51.198;11.966;2023-02-13T02:19:38;8.18;;;6.93;;
23388;SDS011;11867;51.198;11.966;2023-02-13T02:20:55;9.25;;;7.05;;
23388;SDS011;11867;51.198;11.966;2023-02-13T02:25:45;8.05;;;6.10;;
23388;SDS011;11867;51.198;11.966;2023-02-13T02:26:59;7.60;;;5.53;;
23388;SDS011;11867;51.198;11.966;2023-02-13T02:28:19;7.95;;;5.53;;
23388;SDS011;11867;51.198;11.966;2023-02-13T02:32:56;7.63;;;5.57;;
23388;SDS011;11867;51.198;11.966;2023-02-13T02:34:08;6.57;;;5.25;;
23388;SDS011;11867;51.198;11.966;2023-02-13T02:35:22;6.78;;;5.30;;
23388;SDS011;11867;51.198;11.966;2023-02-13T02:37:45;5.68;;;4.82;;
23388;SDS011;11867;51.198;11.966;2023-02-13T02:39:01;6.32;;;5.05;;
23388;SDS011;11867;51.198;11.966;2023-02-13T02:40:10;6.68;;;4.65;;
23388;SDS011;11867;51.198;11.966;2023-02-13T02:41:26;5.47;;;4.13;;
23388;SDS011;11867;51.198;11.966;2023-02-13T02:42:45;5.57;;;4.55;;
23388;SDS011;11867;51.198;11.966;2023-02-13T02:44:00;5.50;;;4.20;;
23388;SDS011;11867;51.198;11.966;2023-02-13T02:45:14;6.03;;;3.90;;
23388;SDS011;11867;51.198;11.966;2023-02-13T02:46:26;6.63;;;4.15;;
23388;SDS011;11867;51.198;11.966;2023-02-13T02:47:37;5.20;;;4.30;;
23388;SDS011;11867;51.198;11.966;2023-02-13T02:49:03;5.88;;;4.47;;
23388;SDS011;11867;51.198;11.966;2023-02-13T02:50:32;4.22;;;3.72;;
23388;SDS011;11867;51.198;11.966;2023-02-13T02:51:38;5.60;;;4.35;;
23388;SDS011;11867;51.198;11.966;2023-02-13T02:52:51;4.40;;;3.15;;
23388;SDS011;11867;51.198;11.966;2023-02-13T02:54:02;5.32;;;4.07;;
23388;SDS011;11867;51.198;11.966;2023-02-13T02:55:29;6.30;;;4.00;;
23388;SDS011;11867;51.198;11.966;2023-02-13T02:56:39;5.20;;;4.20;;
23388;SDS011;11867;51.198;11.966;2023-02-13T02:57:44;4.72;;;3.63;;
23388;SDS011;11867;51.198;11.966;2023-02-13T02:59:09;5.68;;;4.70;;
23388;SDS011;11867;51.198;11.966;2023-02-13T03:00:48;4.68;;;3.58;;
23388;SDS011;11867;51.198;11.966;2023-02-13T03:02:19;5.18;;;3.70;;
23388;SDS011;11867;51.198;11.966;2023-02-13T03:03:42;5.00;;;4.20;;
23388;SDS011;11867;51.198;11.966;2023-02-13T03:05:07;5.25;;;4.22;;
23388;SDS011;11867;51.198;11.966;2023-02-13T03:06:37;5.40;;;3.72;;
23388;SDS011;11867;51.198;11.966;2023-02-13T03:07:45;6.25;;;4.20;;
23388;SDS011;11867;51.198;11.966;2023-02-13T03:08:50;6.13;;;4.45;;
23388;SDS011;11867;51.198;11.966;2023-02-13T03:10:16;5.18;;;4.00;;
23388;SDS011;11867;51.198;11.966;2023-02-13T03:11:48;4.03;;;3.30;;
23388;SDS011;11867;51.198;11.966;2023-02-13T03:13:13;4.47;;;3.78;;
23388;SDS011;11867;51.198;11.966;2023-02-13T03:14:25;5.25;;;3.67;;
23388;SDS011;11867;51.198;11.966;2023-02-13T03:15:28;5.88;;;4.38;;
23388;SDS011;11867;51.198;11.966;2023-02-13T03:16:31;4.70;;;3.63;;
23388;SDS011;11867;51.198;11.966;2023-02-13T03:17:51;2.80;;;2.55;;
23388;SDS011;11867;51.198;11.966;2023-02-13T03:19:13;4.22;;;2.83;;
23388;SDS011;11867;51.198;11.966;2023-02-13T03:20:44;5.40;;;3.67;;
23388;SDS011;11867;51.198;11.966;2023-02-13T03:22:07;4.13;;;3.50;;
23388;SDS011;11867;51.198;11.966;2023-02-13T03:23:26;4.78;;;4.20;;
23388;SDS011;11867;51.198;11.966;2023-02-13T03:24:35;3.88;;;3.35;;
23388;SDS011;11867;51.198;11.966;2023-02-13T03:25:56;5.00;;;3.72;;
23388;SDS011;11867;51.198;11.966;2023-02-13T03:27:16;4.65;;;4.15;;
23388;SDS011;11867;51.198;11.966;2023-02-13T03:28:45;4.43;;;3.60;;
23388;SDS011;11867;51.198;11.966;2023-02-13T03:30:16;4.63;;;3.50;;
23388;SDS011;11867;51.198;11.966;2023-02-13T03:32:34;4.90;;;3.60;;
23388;SDS011;11867;51.198;11.966;2023-02-13T03:33:49;4.47;;;3.80;;
23388;SDS011;11867;51.198;11.966;2023-02-13T03:35:00;4.55;;;4.15;;
23388;SDS011;11867;51.198;11.966;2023-02-13T03:36:37;4.25;;;3.58;;
23388;SDS011;11867;51.198;11.966;2023-02-13T03:38:04;4.65;;;4.22;;
23388;SDS011;11867;51.198;11.966;2023-02-13T03:39:15;5.10;;;4.10;;
23388;SDS011;11867;51.198;11.966;2023-02-13T03:40:22;4.15;;;3.63;;
23388;SDS011;11867;51.198;11.966;2023-02-13T03:41:31;5.55;;;3.35;;
23388;SDS011;11867;51.198;11.966;2023-02-13T03:42:39;4.40;;;3.92;;
23388;SDS011;11867;51.198;11.966;2023-02-13T03:43:48;5.75;;;4.13;;
23388;SDS011;11867;51.198;11.966;2023-02-13T03:44:59;4.68;;;4.18;;
23388;SDS011;11867;51.198;11.966;2023-02-13T03:46:23;5.47;;;3.63;;
23388;SDS011;11867;51.198;11.966;2023-02-13T03:47:28;4.68;;;3.60;;
23388;SDS011;11867;51.198;11.966;2023-02-13T03:48:31;3.95;;;3.60;;
23388;SDS011;11867;51.198;11.966;2023-02-13T03:49:54;4.07;;;3.45;;
23388;SDS011;11867;51.198;11.966;2023-02-13T03:51:11;4.50;;;3.78;;
23388;SDS011;11867;51.198;11.966;2023-02-13T03:52:18;4.07;;;3.67;;
23388;SDS011;11867;51.198;11.966;2023-02-13T03:53:27;5.30;;;3.72;;
23388;SDS011;11867;51.198;11.966;2023-02-13T03:54:32;3.45;;;3.13;;
23388;SDS011;11867;51.198;11.966;2023-02-13T03:55:57;4.40;;;3.90;;
23388;SDS011;11867;51.198;11.966;2023-02-13T03:57:19;3.65;;;3.10;;
23388;SDS011;11867;51.198;11.966;2023-02-13T03:58:43;3.65;;;3.17;;
23388;SDS011;11867;51.198;11.966;2023-02-13T04:00:09;3.55;;;3.05;;
23388;SDS011;11867;51.198;11.966;2023-02-13T04:01:15;4.32;;;3.58;;
23388;SDS011;11867;51.198;11.966;2023-02-13T04:02:19;4.60;;;3.70;;
23388;SDS011;11867;51.198;11.966;2023-02-13T04:03:27;4.30;;;3.20;;
23388;SDS011;11867;51.198;11.966;2023-02-13T04:04:36;4.07;;;3.47;;
23388;SDS011;11867;51.198;11.966;2023-02-13T04:05:46;2.60;;;2.25;;
23388;SDS011;11867;51.198;11.966;2023-02-13T04:06:53;5.15;;;3.42;;
23388;SDS011;11867;51.198;11.966;2023-02-13T04:07:59;5.65;;;3.28;;
23388;SDS011;11867;51.198;11.966;2023-02-13T04:09:01;4.63;;;3.72;;
23388;SDS011;11867;51.198;11.966;2023-02-13T04:10:04;3.47;;;3.17;;
23388;SDS011;11867;51.198;11.966;2023-02-13T04:11:09;4.50;;;3.53;;
23388;SDS011;11867;51.198;11.966;2023-02-13T04:12:15;4.38;;;3.55;;
23388;SDS011;11867;51.198;11.966;2023-02-13T04:13:24;3.88;;;3.38;;
23388;SDS011;11867;51.198;11.966;2023-02-13T04:14:32;4.30;;;3.22;;
23388;SDS011;11867;51.198;11.966;2023-02-13T04:15:40;4.18;;;3.38;;
23388;SDS011;11867;51.198;11.966;2023-02-13T04:16:46;4.82;;;3.75;;
23388;SDS011;11867;51.198;11.966;2023-02-13T04:17:54;4.10;;;3.67;;
23388;SDS011;11867;51.198;11.966;2023-02-13T04:19:03;3.03;;;2.67;;
23388;SDS011;11867;51.198;11.966;2023-02-13T04:20:08;4.40;;;3.95;;
23388;SDS011;11867;51.198;11.966;2023-02-13T04:21:11;4.07;;;3.65;;
23388;SDS011;11867;51.198;11.966;2023-02-13T04:22:16;3.95;;;3.28;;
23388;SDS011;11867;51.198;11.966;2023-02-13T04:23:18;4.95;;;3.80;;
23388;SDS011;11867;51.198;11.966;2023-02-13T04:24:21;3.53;;;3.22;;
23388;SDS011;11867;51.198;11.966;2023-02-13T04:25:22;4.85;;;3.90;;
23388;SDS011;11867;51.198;11.966;2023-02-13T04:26:25;5.20;;;3.58;;
23388;SDS011;11867;51.198;11.966;2023-02-13T04:27:36;4.07;;;3.65;;
23388;SDS011;11867;51.198;11.966;2023-02-13T04:28:40;4.05;;;3.50;;
23388;SDS011;11867;51.198;11.966;2023-02-13T04:29:42;4.00;;;3.60;;
23388;SDS011;11867;51.198;11.966;2023-02-13T04:30:45;3.63;;;3.33;;
23388;SDS011;11867;51.198;11.966;2023-02-13T04:31:47;4.65;;;4.18;;
23388;SDS011;11867;51.198;11.966;2023-02-13T04:32:49;4.57;;;3.90;;
23388;SDS011;11867;51.198;11.966;2023-02-13T04:33:53;4.47;;;3.28;;
23388;SDS011;11867;51.198;11.966;2023-02-13T04:34:55;4.07;;;3.40;;
23388;SDS011;11867;51.198;11.966;2023-02-13T04:35:57;3.95;;;3.47;;
23388;SDS011;11867;51.198;11.966;2023-02-13T04:36:59;4.28;;;3.88;;
23388;SDS011;11867;51.198;11.966;2023-02-13T04:38:02;3.97;;;3.58;;
23388;SDS011;11867;51.198;11.966;2023-02-13T04:39:06;4.07;;;3.67;;
23388;SDS011;11867;51.198;11.966;2023-02-13T04:40:08;4.93;;;4.03;;
23388;SDS011;11867;51.198;11.966;2023-02-13T04:41:11;3.88;;;3.50;;
23388;SDS011;11867;51.198;11.966;2023-02-13T04:42:13;4.00;;;3.60;;
23388;SDS011;11867;51.198;11.966;2023-02-13T04:43:16;4.00;;;3.60;;
23388;SDS011;11867;51.198;11.966;2023-02-13T04:44:18;4.10;;;3.70;;
23388;SDS011;11867;51.198;11.966;2023-02-13T04:45:22;4.10;;;3.50;;
23388;SDS011;11867;51.198;11.966;2023-02-13T04:46:23;4.22;;;3.83;;
23388;SDS011;11867;51.198;11.966;2023-02-13T04:47:26;4.75;;;4.20;;
23388;SDS011;11867;51.198;11.966;2023-02-13T04:48:28;4.70;;;4.10;;
23388;SDS011;11867;51.198;11.966;2023-02-13T04:49:30;5.78;;;4.57;;
23388;SDS011;11867;51.198;11.966;2023-02-13T04:50:32;4.63;;;3.85;;
23388;SDS011;11867;51.198;11.966;2023-02-13T04:51:34;4.85;;;4.05;;
23388;SDS011;11867;51.198;11.966;2023-02-13T04:52:36;4.72;;;3.78;;
23388;SDS011;11867;51.198;11.966;2023-02-13T04:53:40;6.47;;;4.20;;
23388;SDS011;11867;51.198;11.966;2023-02-13T04:54:42;6.75;;;4.45;;
23388;SDS011;11867;51.198;11.966;2023-02-13T04:55:45;4.25;;;3.85;;
23388;SDS011;11867;51.198;11.966;2023-02-13T04:56:47;4.50;;;3.75;;
23388;SDS011;11867;51.198;11.966;2023-02-13T04:57:50;4.88;;;4.38;;
23388;SDS011;11867;51.198;11.966;2023-02-13T04:58:54;5.32;;;4.45;;
23388;SDS011;11867;51.198;11.966;2023-02-13T04:59:57;4.80;;;4.13;;
23388;SDS011;11867;51.198;11.966;2023-02-13T05:00:59;5.10;;;4.40;;
23388;SDS011;11867;51.198;11.966;2023-02-13T05:02:01;7.40;;;4.35;;
23388;SDS011;11867;51.198;11.966;2023-02-13T05:03:03;4.32;;;3.85;;
23388;SDS011;11867;51.198;11.966;2023-02-13T05:04:07;5.03;;;4.10;;
23388;SDS011;11867;51.198;11.966;2023-02-13T05:05:09;5.22;;;3.97;;
23388;SDS011;11867;51.198;11.966;2023-02-13T05:06:11;5.00;;;4.35;;
23388;SDS011;11867;51.198;11.966;2023-02-13T05:07:13;4.10;;;3.78;;
23388;SDS011;11867;51.198;11.966;2023-02-13T05:08:15;5.68;;;4.30;;
23388;SDS011;11867;51.198;11.966;2023-02-13T05:09:19;6.35;;;4.32;;
23388;SDS011;11867;51.198;11.966;2023-02-13T05:10:22;4.72;;;3.60;;
23388;SDS011;11867;51.198;11.966;2023-02-13T05:11:24;4.43;;;3.72;;
23388;SDS011;11867;51.198;11.966;2023-02-13T05:12:27;4.80;;;3.72;;
23388;SDS011;11867;51.198;11.966;2023-02-13T05:13:28;5.28;;;3.42;;
23388;SDS011;11867;51.198;11.966;2023-02-13T05:14:31;4.45;;;3.80;;
23388;SDS011;11867;51.198;11.966;2023-02-13T05:15:33;4.72;;;3.80;;
23388;SDS011;11867;51.198;11.966;2023-02-13T05:16:36;4.57;;;3.95;;
23388;SDS011;11867;51.198;11.966;2023-02-13T05:17:38;4.40;;;4.00;;
23388;SDS011;11867;51.198;11.966;2023-02-13T05:18:40;5.13;;;3.92;;
23388;SDS011;11867;51.198;11.966;2023-02-13T05:19:42;4.38;;;3.92;;
23388;SDS011;11867;51.198;11.966;2023-02-13T05:20:44;4.68;;;4.20;;
23388;SDS011;11867;51.198;11.966;2023-02-13T05:22:07;6.57;;;4.78;;
23388;SDS011;11867;51.198;11.966;2023-02-13T05:23:28;5.07;;;4.15;;
23388;SDS011;11867;51.198;11.966;2023-02-13T05:24:31;4.30;;;3.60;;
23388;SDS011;11867;51.198;11.966;2023-02-13T05:25:34;4.55;;;4.00;;
23388;SDS011;11867;51.198;11.966;2023-02-13T05:26:37;4.43;;;4.03;;
23388;SDS011;11867;51.198;11.966;2023-02-13T05:27:40;5.13;;;4.43;;
23388;SDS011;11867;51.198;11.966;2023-02-13T05:28:44;5.47;;;4.13;;
23388;SDS011;11867;51.198;11.966;2023-02-13T05:30:05;4.82;;;3.95;;
23388;SDS011;11867;51.198;11.966;2023-02-13T05:31:08;5.32;;;4.25;;
23388;SDS011;11867;51.198;11.966;2023-02-13T05:32:10;5.28;;;4.63;;
23388;SDS011;11867;51.198;11.966;2023-02-13T05:33:12;4.60;;;3.78;;
23388;SDS011;11867;51.198;11.966;2023-02-13T05:34:14;4.15;;;3.67;;
23388;SDS011;11867;51.198;11.966;2023-02-13T05:35:17;5.45;;;4.40;;
23388;SDS011;11867;51.198;11.966;2023-02-13T05:36:21;5.20;;;4.07;;
23388;SDS011;11867;51.198;11.966;2023-02-13T05:37:24;5.55;;;4.53;;
23388;SDS011;11867;51.198;11.966;2023-02-13T05:38:26;6.57;;;5.15;;
23388;SDS011;11867;51.198;11.966;2023-02-13T05:39:28;7.93;;;5.05;;
23388;SDS011;11867;51.198;11.966;2023-02-13T05:40:32;6.15;;;4.90;;
23388;SDS011;11867;51.198;11.966;2023-02-13T05:41:34;4.90;;;4.40;;
23388;SDS011;11867;51.198;11.966;2023-02-13T05:42:36;6.55;;;4.60;;
23388;SDS011;11867;51.198;11.966;2023-02-13T05:43:39;5.55;;;4.65;;
23388;SDS011;11867;51.198;11.966;2023-02-13T05:44:40;5.40;;;4.43;;
23388;SDS011;11867;51.198;11.966;2023-02-13T05:45:43;5.30;;;4.28;;
23388;SDS011;11867;51.198;11.966;2023-02-13T05:46:45;5.78;;;5.18;;
23388;SDS011;11867;51.198;11.966;2023-02-13T05:47:49;4.53;;;4.07;;
23388;SDS011;11867;51.198;11.966;2023-02-13T05:48:51;5.20;;;4.40;;
23388;SDS011;11867;51.198;11.966;2023-02-13T05:49:54;5.45;;;4.78;;
23388;SDS011;11867;51.198;11.966;2023-02-13T05:50:55;7.32;;;4.60;;
23388;SDS011;11867;51.198;11.966;2023-02-13T05:51:58;8.02;;;5.07;;
23388;SDS011;11867;51.198;11.966;2023-02-13T05:53:02;5.68;;;4.60;;
23388;SDS011;11867;51.198;11.966;2023-02-13T05:54:04;8.40;;;4.95;;
23388;SDS011;11867;51.198;11.966;2023-02-13T05:55:06;6.57;;;5.10;;
23388;SDS011;11867;51.198;11.966;2023-02-13T05:56:10;5.35;;;4.45;;
23388;SDS011;11867;51.198;11.966;2023-02-13T05:57:12;6.13;;;4.70;;
23388;SDS011;11867;51.198;11.966;2023-02-13T05:58:14;5.70;;;4.70;;
23388;SDS011;11867;51.198;11.966;2023-02-13T05:59:16;6.63;;;4.75;;
23388;SDS011;11867;51.198;11.966;2023-02-13T06:00:20;6.47;;;5.22;;
23388;SDS011;11867;51.198;11.966;2023-02-13T06:01:22;8.27;;;6.10;;
23388;SDS011;11867;51.198;11.966;2023-02-13T06:02:25;6.05;;;5.15;;
23388;SDS011;11867;51.198;11.966;2023-02-13T06:03:28;6.15;;;5.20;;
23388;SDS011;11867;51.198;11.966;2023-02-13T06:04:32;7.15;;;5.80;;
23388;SDS011;11867;51.198;11.966;2023-02-13T06:05:33;5.97;;;4.57;;
23388;SDS011;11867;51.198;11.966;2023-02-13T06:06:36;6.93;;;5.25;;
23388;SDS011;11867;51.198;11.966;2023-02-13T06:07:41;6.03;;;4.63;;
23388;SDS011;11867;51.198;11.966;2023-02-13T06:08:43;6.65;;;5.05;;
23388;SDS011;11867;51.198;11.966;2023-02-13T06:09:48;6.93;;;5.32;;
23388;SDS011;11867;51.198;11.966;2023-02-13T06:10:50;7.25;;;5.78;;
23388;SDS011;11867;51.198;11.966;2023-02-13T06:11:54;6.88;;;4.80;;
23388;SDS011;11867;51.198;11.966;2023-02-13T06:12:57;7.80;;;4.82;;
23388;SDS011;11867;51.198;11.966;2023-02-13T06:14:01;6.38;;;4.60;;
23388;SDS011;11867;51.198;11.966;2023-02-13T06:15:03;5.15;;;4.32;;
23388;SDS011;11867;51.198;11.966;2023-02-13T06:16:06;6.63;;;4.90;;
23388;SDS011;11867;51.198;11.966;2023-02-13T06:17:08;5.53;;;4.53;;
23388;SDS011;11867;51.198;11.966;2023-02-13T06:18:11;6.00;;;4.85;;
23388;SDS011;11867;51.198;11.966;2023-02-13T06:19:12;5.97;;;4.28;;
23388;SDS011;11867;51.198;11.966;2023-02-13T06:20:15;5.65;;;4.28;;
23388;SDS011;11867;51.198;11.966;2023-02-13T06:21:17;6.53;;;5.25;;
23388;SDS011;11867;51.198;11.966;2023-02-13T06:22:20;6.68;;;4.55;;
23388;SDS011;11867;51.198;11.966;2023-02-13T06:23:21;5.70;;;4.53;;
23388;SDS011;11867;51.198;11.966;2023-02-13T06:24:24;7.05;;;5.30;;
23388;SDS011;11867;51.198;11.966;2023-02-13T06:25:26;6.05;;;5.38;;
23388;SDS011;11867;51.198;11.966;2023-02-13T06:26:29;6.95;;;5.57;;
23388;SDS011;11867;51.198;11.966;2023-02-13T06:27:35;7.63;;;5.65;;
23388;SDS011;11867;51.198;11.966;2023-02-13T06:28:37;9.20;;;5.45;;
23388;SDS011;11867;51.198;11.966;2023-02-13T06:29:40;8.48;;;5.78;;
23388;SDS011;11867;51.198;11.966;2023-02-13T06:30:44;7.13;;;6.10;;
23388;SDS011;11867;51.198;11.966;2023-02-13T06:31:46;7.75;;;6.13;;
23388;SDS011;11867;51.198;11.966;2023-02-13T06:32:49;7.60;;;6.15;;
23388;SDS011;11867;51.198;11.966;2023-02-13T06:33:50;8.77;;;6.03;;
23388;SDS011;11867;51.198;11.966;2023-02-13T06:34:53;9.45;;;6.45;;
23388;SDS011;11867;51.198;11.966;2023-02-13T06:35:55;7.50;;;6.28;;
23388;SDS011;11867;51.198;11.966;2023-02-13T06:36:58;5.93;;;5.30;;
23388;SDS011;11867;51.198;11.966;2023-02-13T06:38:00;8.95;;;6.20;;
23388;SDS011;11867;51.198;11.966;2023-02-13T06:39:03;7.43;;;5.78;;